Time;durP1;ratioP1;P1;durP2;ratioP2;P2;SDS_P1;SDS_P2;PMS_P1;PMS_P2;Temp;Humidity;BMP_temperature;BMP_pressure;BME280_temperature;BME280_humidity;BME280_pressure;Samples;Min_cycle;Max_cycle;Signal;HPM_P1;HPM_P2
2023/05/19 00:02:04;;;;;;;1.10;1.10;;;;;;;13.04;100.00;96800.06;5084677;28;20054;-67
2023/05/19 00:04:32;;;;;;;1.08;1.08;;;;;;;13.56;98.66;96837.56;5083993;28;20244;-66
2023/05/19 00:07:00;;;;;;;1.00;1.00;;;;;;;13.44;97.99;96841.50;5084555;28;20059;-66
2023/05/19 00:09:27;;;;;;;1.30;1.30;;;;;;;13.69;97.28;96834.00;5083235;28;20071;-67
2023/05/19 00:11:55;;;;;;;1.20;1.20;;;;;;;13.66;98.34;96836.78;5084758;28;20150;-67
2023/05/19 00:14:22;;;;;;;1.08;1.08;;;;;;;13.43;98.21;96805.72;5084888;28;20063;-67
2023/05/19 00:16:49;;;;;;;1.10;1.10;;;;;;;13.78;96.21;96846.75;5084585;28;20059;-67
2023/05/19 00:19:16;;;;;;;1.05;1.05;;;;;;;13.54;96.03;96829.63;5084549;28;20051;-67
2023/05/19 00:21:43;;;;;;;1.02;1.02;;;;;;;13.66;96.09;96837.56;5084559;28;20120;-67
2023/05/19 00:24:10;;;;;;;1.20;1.20;;;;;;;13.74;95.37;96832.03;5083173;28;20067;-66
2023/05/19 00:26:36;;;;;;;1.00;1.00;;;;;;;13.61;95.32;96779.50;5084060;28;20048;-67
2023/05/19 00:29:03;;;;;;;1.15;1.15;;;;;;;13.30;93.22;96730.19;5084228;28;20059;-67
2023/05/19 00:31:30;;;;;;;1.00;1.00;;;;;;;13.65;90.90;96780.31;5084129;28;20086;-67
2023/05/19 00:33:57;;;;;;;1.10;1.10;;;;;;;14.00;93.28;96824.09;5100093;28;20052;-67
2023/05/19 00:36:24;;;;;;;1.00;1.00;;;;;;;13.82;92.06;96844.75;5083056;28;20438;-66
2023/05/19 00:38:51;;;;;;;1.10;1.10;;;;;;;13.67;93.92;96805.75;5071805;28;20053;-67
2023/05/19 00:41:18;;;;;;;1.10;1.10;;;;;;;13.89;94.69;96853.13;5064409;28;20045;-67
2023/05/19 00:43:45;;;;;;;1.02;1.02;;;;;;;13.82;94.93;96855.88;5083414;28;20426;-66
2023/05/19 00:46:11;;;;;;;1.10;1.10;;;;;;;13.88;92.81;96851.53;5103373;28;20062;-67
2023/05/19 00:48:38;;;;;;;1.20;1.20;;;;;;;14.11;89.94;96852.75;5104382;28;20138;-66
2023/05/19 00:51:05;;;;;;;1.30;1.30;;;;;;;14.44;87.68;96859.91;5104381;28;20498;-68
2023/05/19 00:53:33;;;;;;;1.10;1.10;;;;;;;14.76;85.05;96843.94;5104570;28;20140;-67
2023/05/19 00:56:00;;;;;;;1.20;1.20;;;;;;;14.94;82.00;96847.44;5104373;28;20064;-67
2023/05/19 00:58:29;;;;;;;1.30;1.30;;;;;;;15.09;81.70;96860.16;5104405;28;20044;-67
2023/05/19 01:01:02;;;;;;;1.20;1.20;;;;;;;15.08;81.75;96862.16;5104859;28;20063;-66
2023/05/19 01:03:33;;;;;;;1.30;1.30;;;;;;;14.87;79.69;96814.03;5104030;28;20087;-67
2023/05/19 01:06:03;;;;;;;1.30;1.30;;;;;;;15.35;78.81;96864.44;5104384;28;20087;-67
2023/05/19 01:08:35;;;;;;;1.20;1.20;;;;;;;15.50;76.72;96866.78;5103006;28;20054;-68
2023/05/19 01:11:04;;;;;;;1.20;1.20;;;;;;;15.43;77.67;96855.66;5102798;28;20091;-67
2023/05/19 01:13:32;;;;;;;1.40;1.40;;;;;;;15.37;77.37;96846.09;5104117;28;20040;-68
2023/05/19 01:16:05;;;;;;;1.42;1.42;;;;;;;15.49;77.06;96859.59;5105517;28;20062;-67
2023/05/19 01:18:54;;;;;;;1.60;1.60;;;;;;;15.70;75.11;96865.06;5108459;28;20047;-67
2023/05/19 01:21:43;;;;;;;1.48;1.48;;;;;;;15.27;74.90;96796.69;5108398;28;20049;-67
2023/05/19 01:24:22;;;;;;;1.40;1.40;;;;;;;15.98;71.62;96853.72;5106921;28;20051;-67
2023/05/19 01:27:13;;;;;;;1.20;1.20;;;;;;;16.04;72.87;96862.47;5108153;28;20063;-66
2023/05/19 01:29:46;;;;;;;1.30;1.30;;;;;;;16.00;72.63;96834.56;5107832;28;20063;-67
2023/05/19 01:32:18;;;;;;;1.40;1.40;;;;;;;15.99;71.52;96838.56;5107958;28;20043;-67
2023/05/19 01:34:47;;;;;;;1.60;1.60;;;;;;;16.05;71.79;96841.69;5108377;28;20083;-67
2023/05/19 01:37:16;;;;;;;1.42;1.42;;;;;;;16.02;73.26;96848.91;5108170;28;20940;-67
2023/05/19 01:39:43;;;;;;;1.58;1.58;;;;;;;16.08;73.77;96824.91;5106676;28;20059;-67
2023/05/19 01:42:13;;;;;;;1.40;1.40;;;;;;;15.81;71.65;96812.75;5106800;28;20058;-67
2023/05/19 01:44:40;;;;;;;1.40;1.40;;;;;;;15.44;72.55;96767.94;5091292;28;20052;-67
2023/05/19 01:47:08;;;;;;;1.30;1.30;;;;;;;15.81;72.73;96821.13;5085822;28;20313;-65
2023/05/19 01:49:35;;;;;;;1.50;1.50;;;;;;;15.89;72.55;96839.41;5087433;28;20047;-65
2023/05/19 01:52:01;;;;;;;1.45;1.45;;;;;;;15.86;73.58;96833.84;5086970;28;20314;-65
2023/05/19 01:54:28;;;;;;;1.40;1.40;;;;;;;15.77;72.08;96831.53;5087525;28;20423;-63
2023/05/19 01:57:08;;;;;;;1.27;1.27;;;;;;;15.50;72.72;96769.09;5086871;28;20062;-64
2023/05/19 01:59:48;;;;;;;1.30;1.30;;;;;;;15.72;74.79;96845.94;5087195;28;20052;-64
2023/05/19 02:02:56;;;;;;;1.30;1.30;;;;;;;15.79;73.81;96840.28;5086945;28;20159;-64
2023/05/19 02:05:33;;;;;;;1.45;1.45;;;;;;;15.64;74.27;96830.41;5087120;28;20566;-65
2023/05/19 02:08:04;;;;;;;1.20;1.20;;;;;;;15.82;73.08;96839.47;5065597;28;20063;-65
2023/05/19 02:10:34;;;;;;;1.30;1.30;;;;;;;15.64;73.09;96827.63;5066958;28;20052;-64
2023/05/19 02:13:05;;;;;;;1.40;1.40;;;;;;;15.80;73.26;96858.66;5065491;28;20048;-65
2023/05/19 02:15:40;;;;;;;1.58;1.58;;;;;;;15.84;72.65;96853.81;5066896;28;20091;-65
2023/05/19 02:18:11;;;;;;;1.25;1.25;;;;;;;15.80;73.19;96841.09;5064988;28;20051;-65
2023/05/19 02:20:38;;;;;;;1.30;1.30;;;;;;;15.82;71.81;96861.03;5066593;28;20084;-65
2023/05/19 02:23:06;;;;;;;1.40;1.40;;;;;;;15.82;71.64;96859.00;5066828;28;20052;-65
2023/05/19 02:25:32;;;;;;;1.60;1.60;;;;;;;15.64;71.99;96866.72;5065609;28;20061;-66
2023/05/19 02:27:59;;;;;;;1.45;1.45;;;;;;;16.02;71.39;96862.88;5064303;28;20439;-66
2023/05/19 02:30:26;;;;;;;1.42;1.42;;;;;;;15.94;71.14;96863.31;5066070;28;20122;-64
2023/05/19 02:32:53;;;;;;;1.60;1.60;;;;;;;15.66;71.50;96822.44;5066188;28;20300;-65
2023/05/19 02:35:20;;;;;;;1.40;1.40;;;;;;;15.94;72.25;96864.13;5066383;28;20048;-66
2023/05/19 02:37:47;;;;;;;1.45;1.45;;;;;;;15.88;69.56;96854.59;5064887;28;20044;-66
2023/05/19 02:40:14;;;;;;;1.45;1.45;;;;;;;16.05;69.18;96852.88;5066084;28;20131;-65
2023/05/19 02:42:40;;;;;;;1.50;1.50;;;;;;;16.16;71.35;96859.97;5066060;28;20044;-65
2023/05/19 02:45:07;;;;;;;1.38;1.38;;;;;;;15.78;73.49;96871.41;5096040;28;20052;-65
2023/05/19 02:47:34;;;;;;;1.23;1.23;;;;;;;15.74;73.84;96842.72;5085337;28;20048;-66
2023/05/19 02:50:03;;;;;;;1.38;1.38;;;;;;;15.70;75.01;96865.06;5071636;28;20139;-66
2023/05/19 02:52:30;;;;;;;1.50;1.50;;;;;;;15.18;77.52;96832.63;5085171;28;20044;-66
2023/05/19 02:54:57;;;;;;;1.33;1.33;;;;;;;14.41;81.26;96763.16;5085349;28;20078;-66
2023/05/19 02:57:25;;;;;;;1.30;1.30;;;;;;;14.67;84.02;96851.91;5085394;28;20051;-66
2023/05/19 02:59:52;;;;;;;1.38;1.38;;;;;;;14.69;83.84;96866.25;5085195;28;20048;-66
2023/05/19 03:02:18;;;;;;;1.20;1.20;;;;;;;14.51;84.73;96882.22;5086040;28;20044;-66
2023/05/19 03:04:45;;;;;;;1.30;1.30;;;;;;;14.33;86.52;96892.56;5086165;28;20075;-65
2023/05/19 03:07:13;;;;;;;1.20;1.20;;;;;;;14.30;87.46;96876.63;5085908;28;20553;-66
2023/05/19 03:09:39;;;;;;;1.20;1.20;;;;;;;14.35;86.61;96873.47;5084868;28;20066;-67
2023/05/19 03:12:06;;;;;;;1.30;1.30;;;;;;;14.43;86.87;96894.56;5085634;28;20498;-66
2023/05/19 03:14:37;;;;;;;1.20;1.20;;;;;;;14.44;85.46;96910.06;5085750;28;20102;-66
2023/05/19 03:17:06;;;;;;;1.23;1.23;;;;;;;14.01;86.61;96849.94;5085584;28;20111;-66
2023/05/19 03:19:33;;;;;;;1.23;1.23;;;;;;;14.23;87.92;96904.47;5069311;28;20080;-66
2023/05/19 03:22:00;;;;;;;1.30;1.30;;;;;;;14.22;88.30;96914.03;5065373;28;20044;-66
2023/05/19 03:24:27;;;;;;;1.23;1.23;;;;;;;14.14;88.85;96912.41;5080646;28;20042;-66
2023/05/19 03:26:53;;;;;;;1.00;1.00;;;;;;;14.05;84.99;96909.25;5065472;28;20059;-65
2023/05/19 03:29:20;;;;;;;1.25;1.25;;;;;;;14.69;80.33;96908.88;5063888;28;20064;-66
2023/05/19 03:31:47;;;;;;;1.13;1.13;;;;;;;14.60;82.47;96919.63;5064552;28;20048;-66
2023/05/19 03:34:14;;;;;;;1.20;1.20;;;;;;;14.65;82.56;96907.28;5063855;28;20053;-66
2023/05/19 03:36:40;;;;;;;1.27;1.27;;;;;;;14.39;82.09;96879.81;5080208;28;20060;-66
2023/05/19 03:39:08;;;;;;;1.30;1.30;;;;;;;14.69;84.46;96917.22;5064675;28;20419;-66
2023/05/19 03:41:34;;;;;;;1.10;1.10;;;;;;;14.33;84.63;96882.22;5064606;28;20083;-67
2023/05/19 03:44:01;;;;;;;1.50;1.50;;;;;;;14.55;82.18;96905.28;5076679;28;20055;-66
2023/05/19 03:46:28;;;;;;;1.30;1.30;;;;;;;14.90;83.00;96935.94;5069125;28;20048;-66
2023/05/19 03:48:54;;;;;;;1.27;1.27;;;;;;;14.96;81.83;96932.34;5080107;28;20056;-66
2023/05/19 03:51:21;;;;;;;1.20;1.20;;;;;;;14.34;79.71;96793.81;5064532;28;20063;-66
2023/05/19 03:53:48;;;;;;;1.20;1.20;;;;;;;15.41;79.02;96935.44;5080002;28;20048;-66
2023/05/19 03:56:16;;;;;;;1.50;1.50;;;;;;;15.69;77.72;96924.13;5079885;28;20052;-66
2023/05/19 03:58:43;;;;;;;1.30;1.30;;;;;;;15.75;76.72;96944.84;5064596;28;20048;-66
2023/05/19 04:01:10;;;;;;;1.30;1.30;;;;;;;15.86;76.53;96940.81;5064472;28;20059;-64
2023/05/19 04:03:37;;;;;;;1.20;1.20;;;;;;;15.56;76.52;96897.88;5064628;28;20603;-66
2023/05/19 04:06:04;;;;;;;1.23;1.23;;;;;;;15.95;76.91;96943.16;5064475;28;20053;-66
2023/05/19 04:08:31;;;;;;;1.50;1.50;;;;;;;16.16;76.43;96957.78;5064598;28;20074;-67
2023/05/19 04:10:58;;;;;;;1.30;1.30;;;;;;;16.21;75.71;96965.75;5064694;28;20427;-67
2023/05/19 04:13:24;;;;;;;1.35;1.35;;;;;;;15.81;75.00;96899.31;5064540;28;20052;-67
2023/05/19 04:15:51;;;;;;;1.50;1.50;;;;;;;16.19;75.02;96964.56;5064648;28;20071;-67
2023/05/19 04:18:18;;;;;;;1.48;1.48;;;;;;;16.25;75.50;96938.56;5064633;28;20125;-67
2023/05/19 04:20:45;;;;;;;1.52;1.52;;;;;;;16.16;74.71;96943.81;5064502;28;20068;-67
2023/05/19 04:23:11;;;;;;;1.40;1.40;;;;;;;16.22;74.81;96961.75;5063567;28;20502;-66
2023/05/19 04:25:39;;;;;;;1.30;1.30;;;;;;;16.36;74.30;96958.84;5063961;28;20048;-66
2023/05/19 04:28:06;;;;;;;1.50;1.50;;;;;;;16.50;74.21;96964.38;5063883;28;20049;-67
2023/05/19 04:30:33;;;;;;;1.50;1.50;;;;;;;16.58;73.93;96963.09;5078710;28;20088;-67
2023/05/19 04:33:02;;;;;;;1.30;1.30;;;;;;;16.79;74.47;96966.97;5061088;28;20049;-67
2023/05/19 04:35:29;;;;;;;1.50;1.50;;;;;;;16.63;74.02;96923.53;5064208;28;20468;-67
2023/05/19 04:37:55;;;;;;;1.40;1.40;;;;;;;16.37;72.94;96910.13;5064221;28;20435;-67
2023/05/19 04:40:22;;;;;;;1.40;1.40;;;;;;;16.91;72.98;96972.84;5063686;28;20045;-67
2023/05/19 04:42:51;;;;;;;1.50;1.50;;;;;;;14.91;72.12;96650.25;5063947;28;20052;-66
2023/05/19 04:45:18;;;;;;;1.30;1.30;;;;;;;16.76;73.48;96981.75;5095860;28;20067;-65
2023/05/19 04:47:46;;;;;;;1.45;1.45;;;;;;;16.69;72.81;96976.22;5102832;28;20048;-66
2023/05/19 04:50:15;;;;;;;1.20;1.20;;;;;;;16.72;73.67;96989.38;5103875;28;20506;-67
2023/05/19 04:52:44;;;;;;;1.60;1.60;;;;;;;16.38;72.60;96922.09;5104727;28;20075;-67
2023/05/19 04:55:11;;;;;;;1.80;1.80;;;;;;;16.60;72.79;97005.47;5102993;28;20142;-68
2023/05/19 04:57:38;;;;;;;1.35;1.35;;;;;;;16.72;71.93;96992.19;5104709;28;20040;-66
2023/05/19 05:00:07;;;;;;;1.40;1.40;;;;;;;16.72;72.60;96993.00;5084837;28;20044;-67
2023/05/19 05:02:34;;;;;;;1.67;1.67;;;;;;;16.76;71.88;96998.53;5062359;28;20586;-66
2023/05/19 05:05:01;;;;;;;1.70;1.70;;;;;;;16.78;71.69;96990.53;5062492;28;20143;-66
2023/05/19 05:07:28;;;;;;;1.40;1.40;;;;;;;16.76;72.71;97004.13;5062597;28;20048;-66
2023/05/19 05:09:57;;;;;;;1.60;1.60;;;;;;;16.81;72.65;97004.50;5063284;28;20090;-68
2023/05/19 05:12:25;;;;;;;1.65;1.65;;;;;;;17.09;72.26;97009.84;5065764;28;20102;-66
2023/05/19 05:14:52;;;;;;;1.55;1.55;;;;;;;16.94;72.95;96976.81;5063790;28;20079;-66
2023/05/19 05:17:19;;;;;;;1.50;1.50;;;;;;;17.45;70.86;97007.53;5063756;28;20071;-66
2023/05/19 05:19:47;;;;;;;1.60;1.60;;;;;;;17.81;69.02;97019.94;5063548;28;20060;-66
2023/05/19 05:22:14;;;;;;;1.70;1.70;;;;;;;17.86;67.01;96995.03;5061855;28;20060;-66
2023/05/19 05:24:41;;;;;;;1.70;1.70;;;;;;;18.10;66.82;97009.97;5063324;28;20049;-66
2023/05/19 05:27:08;;;;;;;1.70;1.70;;;;;;;17.98;66.04;97018.94;5063369;28;20131;-65
2023/05/19 05:29:36;;;;;;;1.52;1.52;;;;;;;18.17;65.98;97023.91;5063433;28;20059;-64
2023/05/19 05:32:02;;;;;;;1.30;1.30;;;;;;;18.08;66.84;97026.44;5062732;28;20071;-65
2023/05/19 05:34:29;;;;;;;1.50;1.50;;;;;;;18.27;66.88;97020.16;5063310;28;20199;-65
2023/05/19 05:36:56;;;;;;;1.60;1.60;;;;;;;18.12;68.24;97024.34;5061811;28;20055;-65
2023/05/19 05:39:23;;;;;;;1.70;1.70;;;;;;;17.91;66.39;97019.81;5063049;28;20438;-66
2023/05/19 05:41:49;;;;;;;1.60;1.60;;;;;;;18.35;65.15;97037.69;5068696;28;20392;-68
2023/05/19 05:44:16;;;;;;;1.58;1.58;;;;;;;18.35;65.80;97038.50;5097113;28;20044;-69
2023/05/19 05:46:43;;;;;;;1.52;1.52;;;;;;;18.61;65.66;97039.75;5062184;28;20063;-58
2023/05/19 05:49:12;;;;;;;1.77;1.77;;;;;;;18.62;64.65;97035.75;5078227;28;20048;-58
2023/05/19 05:51:39;;;;;;;1.50;1.50;;;;;;;18.70;66.02;97040.03;5083104;28;20581;-70
2023/05/19 05:54:11;;;;;;;1.70;1.70;;;;;;;18.80;66.15;97048.28;5082475;28;20406;-69
2023/05/19 05:56:39;;;;;;;1.80;1.80;;;;;;;16.46;65.06;96711.97;5075067;28;20743;-57
2023/05/19 05:59:06;;;;;;;1.50;1.50;;;;;;;18.59;65.60;97053.41;5059768;28;20495;-69
2023/05/19 06:01:34;;;;;;;1.52;1.52;;;;;;;18.31;65.22;96970.41;5062722;28;20554;-58
2023/05/19 06:04:01;;;;;;;1.60;1.60;;;;;;;18.86;64.95;97057.81;5084832;28;20532;-68
2023/05/19 06:06:28;;;;;;;1.63;1.63;;;;;;;18.95;65.64;97060.88;5085537;28;20048;-65
2023/05/19 06:08:54;;;;;;;1.80;1.80;;;;;;;19.22;65.03;97064.44;5086068;28;20067;-58
2023/05/19 06:11:21;;;;;;;1.60;1.60;;;;;;;19.17;64.99;97072.56;5070976;28;20533;-67
2023/05/19 06:13:48;;;;;;;1.83;1.83;;;;;;;18.34;65.79;96952.75;5073134;28;20578;-60
2023/05/19 06:16:15;;;;;;;1.92;1.92;;;;;;;18.83;65.71;97058.66;5086191;28;20052;-61
2023/05/19 06:18:42;;;;;;;1.63;1.63;;;;;;;19.51;64.20;97076.03;5085361;28;20135;-58
2023/05/19 06:21:12;;;;;;;1.80;1.80;;;;;;;19.94;63.87;97110.59;5072380;28;20044;-67
2023/05/19 06:23:39;;;;;;;1.80;1.80;;;;;;;19.65;63.05;97072.19;5067818;28;20048;-66
2023/05/19 06:26:06;;;;;;;1.90;1.90;;;;;;;19.59;62.32;97080.31;5083397;28;20047;-56
2023/05/19 06:28:33;;;;;;;2.08;2.08;;;;;;;19.86;61.75;97080.22;5067117;28;20051;-56
2023/05/19 06:31:00;;;;;;;2.15;2.15;;;;;;;20.32;59.49;97085.75;5073182;28;20058;-57
2023/05/19 06:33:26;;;;;;;1.83;1.83;;;;;;;20.35;58.46;97084.88;5078426;28;20052;-56
2023/05/19 06:35:54;;;;;;;1.90;1.90;;;;;;;20.23;58.64;97051.78;5078015;28;20113;-57
2023/05/19 06:38:21;;;;;;;1.80;1.80;;;;;;;20.20;58.42;97100.50;5082525;28;20329;-58
2023/05/19 06:40:48;;;;;;;2.08;2.08;;;;;;;20.35;58.08;97062.38;5084718;28;20484;-56
2023/05/19 06:43:14;;;;;;;2.00;2.00;;;;;;;20.38;57.62;97100.91;5083985;28;20059;-63
2023/05/19 06:45:41;;;;;;;2.10;2.10;;;;;;;20.23;57.12;97094.00;5084237;28;20056;-56
2023/05/19 06:48:08;;;;;;;2.03;2.03;;;;;;;19.71;57.95;97078.91;5084211;28;20058;-57
2023/05/19 06:50:35;;;;;;;2.03;2.03;;;;;;;20.18;58.62;97102.94;5080196;28;20463;-63
2023/05/19 06:53:01;;;;;;;2.05;2.05;;;;;;;20.53;55.90;97107.84;5065441;28;20466;-56
2023/05/19 06:55:28;;;;;;;2.08;2.08;;;;;;;20.76;55.58;97104.91;5064285;28;20057;-63
2023/05/19 06:57:55;;;;;;;2.00;2.00;;;;;;;20.17;57.51;97106.97;5071245;28;20064;-55
2023/05/19 07:00:22;;;;;;;1.73;1.73;;;;;;;20.00;59.87;97113.69;5065102;28;20053;-57
2023/05/19 07:02:49;;;;;;;1.80;1.80;;;;;;;20.15;59.22;97112.22;5065252;28;20134;-63
2023/05/19 07:05:16;;;;;;;2.03;2.03;;;;;;;19.81;57.31;97032.91;5073566;28;20512;-58
2023/05/19 07:07:43;;;;;;;2.08;2.08;;;;;;;20.29;59.78;97052.88;5081708;28;20048;-69
2023/05/19 07:10:10;;;;;;;2.47;2.38;;;;;;;20.78;56.86;97108.09;5080123;28;20048;-55
2023/05/19 07:12:37;;;;;;;2.00;2.00;;;;;;;20.37;58.64;97110.59;5077982;28;20056;-57
2023/05/19 07:15:04;;;;;;;1.90;1.90;;;;;;;20.10;61.24;97112.69;5066710;28;20521;-66
2023/05/19 07:17:30;;;;;;;2.10;2.10;;;;;;;19.82;61.46;97057.00;5081822;28;20067;-66
2023/05/19 07:19:57;;;;;;;2.00;2.00;;;;;;;19.89;62.30;97118.72;5082175;28;20048;-66
2023/05/19 07:22:24;;;;;;;1.63;1.63;;;;;;;19.57;61.67;97115.69;5079056;28;20052;-61
2023/05/19 07:24:51;;;;;;;1.70;1.70;;;;;;;19.43;62.96;97114.69;5071086;28;20425;-57
2023/05/19 07:27:18;;;;;;;1.70;1.70;;;;;;;19.55;63.30;97122.50;5066008;28;20462;-69
2023/05/19 07:29:44;;;;;;;2.00;2.00;;;;;;;19.62;62.25;97115.22;5079580;28;20476;-67
2023/05/19 07:32:11;;;;;;;1.85;1.85;;;;;;;19.71;61.89;97095.75;5066754;28;20513;-58
2023/05/19 07:34:39;;;;;;;1.80;1.80;;;;;;;19.89;59.85;97107.47;5068548;28;20048;-64
2023/05/19 07:37:06;;;;;;;1.80;1.80;;;;;;;20.01;63.70;97109.66;5079435;28;20083;-63
2023/05/19 07:39:34;;;;;;;1.88;1.88;;;;;;;19.80;63.57;97110.06;5068428;28;20045;-56
2023/05/19 07:42:00;;;;;;;1.90;1.90;;;;;;;19.75;63.38;97068.38;5075913;28;20048;-70
2023/05/19 07:44:30;;;;;;;2.00;2.00;;;;;;;20.31;62.44;97106.69;5064683;28;20457;-69
2023/05/19 07:46:56;;;;;;;2.08;2.08;;;;;;;20.65;60.68;97104.34;5064653;28;20079;-58
2023/05/19 07:49:23;;;;;;;1.95;1.95;;;;;;;20.51;59.70;97108.28;5078226;28;20476;-57
2023/05/19 07:51:50;;;;;;;1.98;1.98;;;;;;;20.55;61.24;97105.41;5071714;28;20048;-65
2023/05/19 07:54:17;;;;;;;2.10;2.10;;;;;;;20.49;59.60;97101.47;5083547;28;20064;-59
2023/05/19 07:56:43;;;;;;;2.00;2.00;;;;;;;20.54;60.21;97072.81;5069922;28;20489;-59
2023/05/19 07:59:10;;;;;;;1.90;1.90;;;;;;;20.71;60.01;97105.44;5076067;28;20483;-62
2023/05/19 08:01:37;;;;;;;2.10;2.10;;;;;;;20.43;58.78;97098.41;5078423;28;20076;-57
2023/05/19 08:04:04;;;;;;;1.90;1.90;;;;;;;20.45;59.68;97095.16;5070269;28;20059;-58
2023/05/19 08:06:31;;;;;;;2.13;2.13;;;;;;;20.74;60.40;97101.75;5067208;28;20510;-73
2023/05/19 08:08:57;;;;;;;2.08;2.08;;;;;;;21.13;60.51;97100.91;5082198;28;20058;-72
2023/05/19 08:11:24;;;;;;;2.03;2.03;;;;;;;21.25;56.43;97098.19;5075159;28;20051;-57
2023/05/19 08:13:51;;;;;;;2.47;2.40;;;;;;;20.90;56.27;97088.50;5077865;28;20055;-67
2023/05/19 08:16:18;;;;;;;2.03;2.03;;;;;;;21.39;57.62;97103.47;5064069;28;20076;-57
2023/05/19 08:18:44;;;;;;;2.20;2.20;;;;;;;21.43;56.91;97101.38;5063929;28;20056;-71
2023/05/19 08:21:11;;;;;;;2.10;2.10;;;;;;;21.28;56.99;97119.84;5073174;28;20064;-58
2023/05/19 08:23:38;;;;;;;2.05;2.05;;;;;;;21.05;55.31;97111.53;5082848;28;20059;-65
2023/05/19 08:26:05;;;;;;;2.00;2.00;;;;;;;21.27;56.41;97118.28;5065978;28;20044;-63
2023/05/19 08:28:31;;;;;;;1.90;1.90;;;;;;;20.67;57.81;97118.81;5063560;28;20515;-64
2023/05/19 08:30:58;;;;;;;2.10;2.10;;;;;;;21.19;55.84;97102.75;5073306;28;20060;-65
2023/05/19 08:33:25;;;;;;;2.10;2.10;;;;;;;21.71;56.11;97131.66;5065663;28;20105;-58
2023/05/19 08:35:51;;;;;;;2.20;2.20;;;;;;;21.84;55.54;97124.13;5065454;28;20055;-65
2023/05/19 08:38:18;;;;;;;2.00;2.00;;;;;;;21.17;55.61;97065.78;5079793;28;20659;-59
2023/05/19 08:40:47;;;;;;;2.13;2.13;;;;;;;21.36;55.54;97124.09;5070452;28;20049;-60
2023/05/19 08:43:13;;;;;;;2.45;2.35;;;;;;;21.42;54.97;97125.13;5068918;28;20530;-57
2023/05/19 08:45:47;;;;;;;2.10;2.10;;;;;;;21.31;54.28;97123.81;5064788;28;20051;-63
2023/05/19 08:48:16;;;;;;;2.00;2.00;;;;;;;20.87;54.89;97130.81;5071736;28;20070;-69
2023/05/19 08:50:50;;;;;;;2.10;2.10;;;;;;;20.40;57.72;97123.78;5073185;28;20044;-59
2023/05/19 08:53:24;;;;;;;1.92;1.92;;;;;;;20.12;57.85;97099.00;5069978;28;20110;-57
2023/05/19 08:56:18;;;;;;;2.08;2.08;;;;;;;20.56;55.56;97135.91;5066615;28;20067;-68
2023/05/19 08:58:48;;;;;;;1.95;1.95;;;;;;;20.53;56.66;97116.28;5066056;28;20051;-67
2023/05/19 09:01:16;;;;;;;2.00;2.00;;;;;;;20.39;55.73;97091.25;5083354;28;20044;-56
2023/05/19 09:03:44;;;;;;;1.90;1.90;;;;;;;20.85;54.98;97144.53;5068485;28;20096;-58
2023/05/19 09:06:12;;;;;;;1.80;1.80;;;;;;;20.84;54.90;97111.97;5071529;28;20048;-58
2023/05/19 09:08:40;;;;;;;1.90;1.90;;;;;;;20.99;53.87;97108.44;5037955;28;20049;-65
2023/05/19 09:11:08;;;;;;;2.30;2.30;;;;;;;21.47;55.61;97144.34;5053059;28;20163;-67
2023/05/19 09:13:35;;;;;;;2.33;2.30;;;;;;;21.00;52.85;97081.06;5057156;28;20059;-58
2023/05/19 09:16:02;;;;;;;2.28;2.28;;;;;;;21.65;51.87;97116.53;5043046;28;20439;-59
2023/05/19 09:18:29;;;;;;;2.13;2.13;;;;;;;21.76;55.80;97145.28;5043070;28;20578;-62
2023/05/19 09:21:01;;;;;;;2.50;2.40;;;;;;;21.86;52.02;97090.59;5061626;28;20053;-66
2023/05/19 09:23:32;;;;;;;2.10;2.10;;;;;;;21.94;53.67;97145.59;5058745;28;20132;-64
2023/05/19 09:26:06;;;;;;;2.08;2.08;;;;;;;22.21;52.68;97159.41;5043089;28;20099;-59
2023/05/19 09:28:35;;;;;;;2.60;2.50;;;;;;;22.79;51.74;97144.09;5055301;28;20041;-58
2023/05/19 09:31:09;;;;;;;2.38;2.35;;;;;;;22.80;51.10;97117.41;5060017;28;20056;-59
2023/05/19 09:33:41;;;;;;;2.55;2.45;;;;;;;22.53;50.48;97141.59;5054858;28;20049;-58
2023/05/19 09:36:12;;;;;;;2.45;2.38;;;;;;;22.04;50.95;97099.41;5046791;28;20053;-63
2023/05/19 09:38:39;;;;;;;2.47;2.38;;;;;;;22.16;51.36;97112.75;5062257;28;20051;-58
2023/05/19 09:41:08;;;;;;;2.60;2.50;;;;;;;22.56;49.98;97147.16;5065476;28;20436;-59
2023/05/19 09:43:35;;;;;;;2.60;2.50;;;;;;;21.68;50.05;97035.88;5046428;28;20081;-66
2023/05/19 09:46:06;;;;;;;2.75;2.65;;;;;;;22.64;49.66;97147.75;5057417;28;20127;-62
2023/05/19 09:48:35;;;;;;;2.90;2.80;;;;;;;23.08;48.90;97149.69;5066749;28;20048;-62
2023/05/19 09:51:04;;;;;;;2.60;2.50;;;;;;;23.10;50.50;97130.22;5066312;28;20059;-63
2023/05/19 09:53:31;;;;;;;2.80;2.70;;;;;;;23.55;48.86;97131.59;5066791;28;20056;-58
2023/05/19 09:56:00;;;;;;;2.75;2.65;;;;;;;23.32;49.71;97136.81;5066952;28;20088;-62
2023/05/19 09:58:33;;;;;;;2.88;2.78;;;;;;;23.19;49.13;97138.84;5081935;28;20056;-63
2023/05/19 10:01:02;;;;;;;2.90;2.80;;;;;;;22.74;49.48;97136.16;5081997;28;20699;-63
2023/05/19 10:03:31;;;;;;;2.55;2.45;;;;;;;23.19;49.52;97133.97;5082002;28;20356;-58
2023/05/19 10:06:00;;;;;;;2.60;2.50;;;;;;;23.07;46.87;97129.09;5063930;28;20099;-61
2023/05/19 10:08:29;;;;;;;2.75;2.65;;;;;;;22.91;46.45;97140.47;5053008;28;20057;-68
2023/05/19 10:10:57;;;;;;;2.70;2.60;;;;;;;22.83;47.95;97132.66;5044566;28;20519;-57
2023/05/19 10:13:24;;;;;;;3.10;3.00;;;;;;;23.46;47.26;97125.06;5046182;28;20045;-58
2023/05/19 10:15:52;;;;;;;2.75;2.65;;;;;;;24.09;45.81;97120.09;5045941;28;20052;-61
2023/05/19 10:18:26;;;;;;;3.13;3.03;;;;;;;23.51;46.68;97107.53;5054733;28;20098;-63
2023/05/19 10:20:53;;;;;;;3.40;3.30;;;;;;;24.01;47.66;97106.69;5056830;28;20049;-59
2023/05/19 10:23:21;;;;;;;3.08;2.97;;;;;;;24.15;47.19;97114.66;5048194;28;20098;-59
2023/05/19 10:25:51;;;;;;;3.30;3.20;;;;;;;24.26;46.42;97115.88;5052924;28;20113;-64
2023/05/19 10:28:22;;;;;;;3.10;3.00;;;;;;;23.69;47.25;97127.53;5056310;28;20052;-62
2023/05/19 10:30:55;;;;;;;3.10;3.00;;;;;;;23.21;47.47;97125.03;5051018;28;20447;-60
2023/05/19 10:33:43;;;;;;;2.70;2.60;;;;;;;22.86;46.79;97115.59;5044177;28;20057;-68
2023/05/19 10:36:41;;;;;;;2.80;2.70;;;;;;;23.43;48.58;97125.97;5060061;28;20066;-67
2023/05/19 10:39:16;;;;;;;3.00;2.90;;;;;;;23.28;47.37;97130.50;5044443;28;20486;-67
2023/05/19 10:41:56;;;;;;;2.72;2.63;;;;;;;23.95;45.66;97123.41;5043713;28;20559;-58
2023/05/19 10:44:37;;;;;;;3.13;3.03;;;;;;;24.59;44.65;97100.09;5044300;28;20056;-64
2023/05/19 10:47:10;;;;;;;3.08;2.97;;;;;;;24.82;43.64;97110.16;5052070;28;20080;-62
2023/05/19 10:49:38;;;;;;;3.03;2.92;;;;;;;25.02;45.07;97111.41;5056595;28;20114;-57
2023/05/19 10:52:25;;;;;;;3.38;3.28;;;;;;;24.89;44.49;97105.03;5060573;28;20045;-66
2023/05/19 10:54:53;;;;;;;3.13;3.03;;;;;;;24.78;43.10;97096.16;5053273;28;20094;-59
2023/05/19 10:57:27;;;;;;;3.30;3.20;;;;;;;24.74;43.21;97095.50;5061236;28;20081;-56
2023/05/19 10:59:54;;;;;;;;;;;;;;;24.70;44.17;97094.84;5057821;28;20041;-58
2023/05/19 11:02:41;;;;;;;2.83;2.72;;;;;;;23.91;44.50;97100.09;5061479;28;20233;-62
2023/05/19 11:05:13;;;;;;;3.00;2.90;;;;;;;23.66;44.43;97103.00;5047952;28;20052;-59
2023/05/19 11:07:53;;;;;;;2.80;2.70;;;;;;;23.95;44.08;97100.75;5050571;28;20127;-58
2023/05/19 11:10:23;;;;;;;2.70;2.60;;;;;;;23.45;45.53;97096.00;5052394;28;20056;-62
2023/05/19 11:12:51;;;;;;;3.10;3.00;;;;;;;23.67;43.64;97096.06;5060997;28;20056;-60
2023/05/19 11:15:25;;;;;;;3.00;2.90;;;;;;;23.84;44.47;97057.88;5057905;28;20373;-58
2023/05/19 11:17:52;;;;;;;3.28;3.17;;;;;;;24.49;42.89;97084.28;5048126;28;20508;-66
2023/05/19 11:20:24;;;;;;;3.22;3.13;;;;;;;24.33;42.23;97104.28;5071731;28;20053;-59
2023/05/19 11:23:14;;;;;;;3.30;3.20;;;;;;;23.70;43.84;97078.19;5059396;28;21962;-60
2023/05/19 11:25:49;;;;;;;3.00;2.90;;;;;;;23.94;45.67;97087.88;5063261;28;20052;-67
2023/05/19 11:28:18;;;;;;;3.10;3.00;;;;;;;25.03;43.69;97078.97;5048664;28;20059;-72
2023/05/19 11:30:50;;;;;;;3.10;3.00;;;;;;;25.51;42.77;97079.50;5044576;28;20140;-60
2023/05/19 11:33:25;;;;;;;3.35;3.25;;;;;;;25.64;41.14;97083.78;5051263;28;20541;-74
2023/05/19 11:35:56;;;;;;;3.47;3.38;;;;;;;26.09;40.55;97080.28;5071051;28;20405;-72
2023/05/19 11:38:24;;;;;;;3.80;3.70;;;;;;;25.43;40.31;97075.38;5050281;28;20048;-67
2023/05/19 11:40:54;;;;;;;3.30;3.20;;;;;;;25.02;42.37;97037.69;5054553;28;20044;-58
2023/05/19 11:43:25;;;;;;;3.30;3.20;;;;;;;25.79;40.50;97038.59;5066531;28;20064;-66